createdAt,value
2019-04-25T00:00:24.850Z,17.50
2019-04-25T00:02:55.033Z,17.50
2019-04-25T00:05:25.189Z,17.50
2019-04-25T00:07:55.132Z,17.40
2019-04-25T00:10:25.515Z,17.30
2019-04-25T00:12:55.533Z,17.10
2019-04-25T00:15:27.077Z,17.00
2019-04-25T00:17:57.021Z,17.00
2019-04-25T00:20:28.520Z,16.90
2019-04-25T00:23:01.913Z,16.90
2019-04-25T00:25:51.328Z,16.80
2019-04-25T00:28:22.453Z,16.60
2019-04-25T00:30:53.132Z,16.60
2019-04-25T00:33:23.760Z,16.50
2019-04-25T00:35:53.727Z,16.40
2019-04-25T00:38:23.679Z,16.20
2019-04-25T00:40:53.687Z,16.20
2019-04-25T00:43:23.635Z,16.10
2019-04-25T00:45:53.611Z,16.10
2019-04-25T00:48:23.584Z,16.00
2019-04-25T00:50:54.603Z,15.90
2019-04-25T00:53:24.681Z,15.80
2019-04-25T00:55:54.626Z,15.80
2019-04-25T00:58:26.307Z,15.70
2019-04-25T01:01:14.455Z,15.70
2019-04-25T01:03:45.329Z,15.70
2019-04-25T01:06:15.325Z,15.60
2019-04-25T01:08:45.801Z,15.50
2019-04-25T01:11:15.754Z,15.50
2019-04-25T01:13:46.203Z,15.40
2019-04-25T01:16:16.513Z,15.30
2019-04-25T01:18:46.837Z,15.30
2019-04-25T01:21:16.800Z,15.10
2019-04-25T01:23:47.296Z,15.10
2019-04-25T01:26:17.319Z,14.90
2019-04-25T01:28:47.649Z,14.90
2019-04-25T01:31:19.338Z,14.90
2019-04-25T01:33:50.434Z,14.90
2019-04-25T01:36:38.109Z,14.80
2019-04-25T01:39:14.356Z,14.70
2019-04-25T01:42:05.307Z,14.50
2019-04-25T01:44:36.935Z,14.50
2019-04-25T01:47:07.057Z,14.50
2019-04-25T01:49:37.037Z,14.50
2019-04-25T01:52:07.037Z,14.50
2019-04-25T01:54:36.996Z,14.40
2019-04-25T01:57:08.508Z,14.40
2019-04-25T01:59:38.470Z,14.20
2019-04-25T02:02:10.438Z,13.90
2019-04-25T02:04:40.391Z,13.90
2019-04-25T02:07:10.507Z,13.70
2019-04-25T02:09:40.465Z,13.70
2019-04-25T02:12:13.510Z,13.60
2019-04-25T02:14:43.707Z,13.60
2019-04-25T02:17:14.201Z,13.60
2019-04-25T02:19:44.256Z,13.50
2019-04-25T02:22:15.796Z,13.40
2019-04-25T02:24:45.758Z,13.40
2019-04-25T02:27:15.693Z,13.40
2019-04-25T02:29:45.663Z,13.30
2019-04-25T02:32:15.613Z,13.00
2019-04-25T02:34:45.773Z,13.00
2019-04-25T02:37:16.383Z,12.90
2019-04-25T02:39:46.439Z,12.70
2019-04-25T02:42:16.823Z,12.60
2019-04-25T02:44:49.647Z,12.60
2019-04-25T02:47:30.536Z,12.30
2019-04-25T02:50:18.373Z,12.20
2019-04-25T02:52:49.958Z,12.00
2019-04-25T02:55:30.818Z,11.80
2019-04-25T02:57:51.488Z,11.80
2019-04-25T03:00:25.336Z,11.80
2019-04-25T03:02:57.316Z,11.80
2019-04-25T03:05:27.102Z,11.80
2019-04-25T03:07:58.458Z,11.90
2019-04-25T03:10:28.661Z,11.90
2019-04-25T03:13:00.001Z,11.90
2019-04-25T03:15:30.158Z,11.80
2019-04-25T03:18:00.255Z,11.80
2019-04-25T03:20:31.926Z,11.70
2019-04-25T03:23:08.996Z,11.70
2019-04-25T03:25:37.988Z,11.70
2019-04-25T03:28:07.935Z,11.70
2019-04-25T03:30:38.080Z,11.70
2019-04-25T03:33:13.014Z,11.70
2019-04-25T03:35:39.629Z,11.70
2019-04-25T03:38:09.567Z,11.80
2019-04-25T03:40:39.602Z,11.80
2019-04-25T03:43:09.591Z,11.80
2019-04-25T03:45:39.638Z,11.80
2019-04-25T03:48:09.627Z,11.80
2019-04-25T03:50:40.736Z,11.70
2019-04-25T03:53:10.683Z,11.40
2019-04-25T03:55:40.662Z,11.40
2019-04-25T03:58:11.681Z,11.40
2019-04-25T04:00:41.895Z,11.20
2019-04-25T04:03:11.889Z,11.10
2019-04-25T04:05:41.935Z,10.90
2019-04-25T04:08:11.950Z,10.80
2019-04-25T04:10:43.262Z,10.60
2019-04-25T04:13:14.591Z,10.60
2019-04-25T04:15:44.788Z,10.60
2019-04-25T04:18:26.476Z,10.70
2019-04-25T04:20:55.784Z,10.80
2019-04-25T04:23:30.511Z,10.90
2019-04-25T04:26:00.545Z,10.80
2019-04-25T04:28:30.491Z,10.90
2019-04-25T04:31:00.542Z,10.90
2019-04-25T04:33:32.896Z,10.90
2019-04-25T04:36:03.897Z,10.90
2019-04-25T04:38:35.040Z,10.90
2019-04-25T04:41:04.965Z,10.90
2019-04-25T04:43:34.919Z,10.90
2019-04-25T04:46:04.883Z,10.90
2019-04-25T04:48:34.834Z,10.90
2019-04-25T04:51:04.880Z,10.90
2019-04-25T04:53:35.848Z,11.00
2019-04-25T04:56:06.026Z,11.00
2019-04-25T04:58:37.040Z,11.00
2019-04-25T05:01:07.116Z,11.10
2019-04-25T05:03:41.468Z,11.10
2019-04-25T05:06:14.996Z,11.20
2019-04-25T05:08:46.284Z,11.20
2019-04-25T05:11:17.033Z,11.30
2019-04-25T05:13:47.838Z,11.30
2019-04-25T05:16:17.812Z,11.30
2019-04-25T05:18:47.763Z,11.40
2019-04-25T05:21:18.257Z,11.40
2019-04-25T05:23:48.801Z,11.40
2019-04-25T05:26:18.956Z,11.50
2019-04-25T05:28:48.991Z,11.50
2019-04-25T05:31:21.350Z,11.50
2019-04-25T05:33:53.666Z,11.60
2019-04-25T05:36:25.542Z,11.70
2019-04-25T05:38:55.490Z,11.80
2019-04-25T05:41:29.819Z,12.00
2019-04-25T05:43:59.812Z,12.40
2019-04-25T05:46:29.858Z,12.50
2019-04-25T05:48:59.848Z,12.40
2019-04-25T05:51:29.822Z,12.40
2019-04-25T05:53:59.767Z,12.60
2019-04-25T05:56:29.735Z,12.60
2019-04-25T05:58:59.689Z,12.60
2019-04-25T06:01:30.227Z,12.70
2019-04-25T06:04:00.205Z,12.90
2019-04-25T06:06:30.205Z,13.10
2019-04-25T06:09:01.790Z,13.30
2019-04-25T06:11:44.265Z,13.40
2019-04-25T06:14:15.842Z,13.50
2019-04-25T06:16:45.810Z,13.60
2019-04-25T06:19:21.234Z,13.70
2019-04-25T06:21:53.434Z,13.80
2019-04-25T06:24:27.827Z,13.80
2019-04-25T06:26:59.437Z,14.00
2019-04-25T06:29:29.392Z,14.10
2019-04-25T06:32:06.658Z,14.10
2019-04-25T06:34:33.983Z,14.10
2019-04-25T06:37:04.387Z,14.10
2019-04-25T06:39:34.096Z,14.20
2019-04-25T06:42:04.348Z,14.20
2019-04-25T06:44:47.764Z,14.30
2019-04-25T06:47:36.015Z,14.50
2019-04-25T06:50:07.481Z,14.60
2019-04-25T06:52:37.447Z,14.80
2019-04-25T06:55:07.796Z,14.90
2019-04-25T06:57:37.769Z,14.90
2019-04-25T07:00:11.629Z,15.10
2019-04-25T07:02:43.515Z,15.10
2019-04-25T07:05:25.827Z,15.20
2019-04-25T07:07:45.608Z,15.30
2019-04-25T07:10:15.987Z,15.40
2019-04-25T07:12:45.960Z,15.50
2019-04-25T07:15:17.611Z,15.50
2019-04-25T07:17:47.583Z,15.60
2019-04-25T07:20:18.572Z,15.60
2019-04-25T07:22:48.557Z,15.70
2019-04-25T07:25:19.312Z,15.70
2019-04-25T07:28:06.269Z,15.70
2019-04-25T07:30:54.690Z,15.70
2019-04-25T07:33:28.131Z,15.80
2019-04-25T07:35:58.103Z,15.80
2019-04-25T07:38:29.011Z,15.80
2019-04-25T07:40:59.016Z,15.90
2019-04-25T07:43:29.641Z,15.90
2019-04-25T07:45:59.610Z,15.90
2019-04-25T07:48:30.059Z,15.90
2019-04-25T07:51:00.100Z,16.10
2019-04-25T07:53:30.590Z,16.30
2019-04-25T07:56:01.414Z,16.50
2019-04-25T07:58:44.923Z,16.60
2019-04-25T08:01:05.885Z,16.70
2019-04-25T08:03:36.540Z,17.20
2019-04-25T08:06:06.567Z,17.10
2019-04-25T08:08:36.536Z,16.90
2019-04-25T08:11:08.491Z,16.90
2019-04-25T08:13:40.169Z,17.00
2019-04-25T08:16:31.141Z,17.10
2019-04-25T08:19:03.937Z,17.00
2019-04-25T08:21:35.131Z,17.00
2019-04-25T08:24:05.790Z,17.10
2019-04-25T08:26:36.419Z,17.30
2019-04-25T08:29:07.256Z,17.60
2019-04-25T08:31:37.753Z,17.90
2019-04-25T08:34:08.838Z,17.60
2019-04-25T08:36:39.939Z,17.60
2019-04-25T08:39:11.687Z,17.80
2019-04-25T08:41:41.808Z,17.80
2019-04-25T08:44:11.857Z,17.70
2019-04-25T08:46:44.225Z,17.70
2019-04-25T08:49:18.625Z,17.80
2019-04-25T08:51:50.432Z,18.00
2019-04-25T08:54:23.618Z,18.40
2019-04-25T08:56:55.490Z,18.40
2019-04-25T08:59:40.061Z,18.20
2019-04-25T09:02:06.393Z,18.60
2019-04-25T09:04:42.619Z,19.10
2019-04-25T09:07:13.407Z,19.00
2019-04-25T09:09:44.054Z,19.20
2019-04-25T09:12:15.038Z,19.40
2019-04-25T09:14:46.438Z,19.10
2019-04-25T09:17:16.456Z,19.10
2019-04-25T09:19:46.437Z,19.60
2019-04-25T09:22:16.387Z,19.50
2019-04-25T09:24:46.365Z,19.50
2019-04-25T09:27:16.390Z,20.00
2019-04-25T09:29:47.432Z,20.10
2019-04-25T09:32:17.588Z,19.70
2019-04-25T09:34:48.051Z,19.60
2019-04-25T09:37:18.059Z,19.60
2019-04-25T09:39:49.662Z,19.50
2019-04-25T09:42:19.673Z,20.30
2019-04-25T09:44:53.996Z,20.70
2019-04-25T09:47:24.012Z,20.90
2019-04-25T09:49:54.436Z,20.60
2019-04-25T09:52:24.483Z,20.40
2019-04-25T09:54:56.075Z,20.20
2019-04-25T09:57:44.848Z,20.40
2019-04-25T10:00:23.267Z,20.60
2019-04-25T10:02:55.292Z,20.80
2019-04-25T10:05:24.937Z,20.60
2019-04-25T10:07:55.023Z,20.70
2019-04-25T10:10:25.866Z,20.60
2019-04-25T10:12:55.815Z,20.60
2019-04-25T10:15:37.668Z,20.60
2019-04-25T10:18:07.695Z,20.60
2019-04-25T10:20:37.681Z,21.30
2019-04-25T10:23:09.638Z,22.20
2019-04-25T10:25:39.709Z,22.40
2019-04-25T10:28:09.659Z,22.20
2019-04-25T10:30:41.010Z,22.50
2019-04-25T10:33:11.147Z,23.40
2019-04-25T10:35:50.814Z,23.50
2019-04-25T10:38:14.350Z,24.10
2019-04-25T10:40:47.417Z,23.70
2019-04-25T10:43:17.515Z,23.80
2019-04-25T10:45:48.707Z,23.70
2019-04-25T10:48:18.759Z,24.00
2019-04-25T10:50:48.825Z,24.30
2019-04-25T10:53:18.775Z,24.20
2019-04-25T10:55:49.663Z,24.70
2019-04-25T10:58:19.675Z,24.70
2019-04-25T11:00:51.642Z,24.80
2019-04-25T11:03:29.656Z,24.70
2019-04-25T11:05:59.628Z,24.80
2019-04-25T11:08:29.642Z,24.50
2019-04-25T11:10:59.611Z,24.30
2019-04-25T11:13:29.626Z,24.50
2019-04-25T11:16:00.041Z,25.20
2019-04-25T11:18:30.051Z,25.40
2019-04-25T11:21:00.069Z,26.10
2019-04-25T11:23:30.128Z,25.90
2019-04-25T11:26:00.212Z,25.90
2019-04-25T11:28:30.331Z,26.00
2019-04-25T11:31:00.467Z,25.90
2019-04-25T11:33:30.572Z,25.60
2019-04-25T11:36:00.527Z,26.20
2019-04-25T11:38:50.319Z,26.90
2019-04-25T11:41:21.944Z,27.10
2019-04-25T11:43:51.890Z,27.50
2019-04-25T11:46:22.014Z,27.00
2019-04-25T11:48:52.681Z,26.60
2019-04-25T11:51:24.124Z,26.50
2019-04-25T11:53:55.562Z,26.60
2019-04-25T11:56:25.692Z,27.00
2019-04-25T11:58:55.651Z,27.30
2019-04-25T12:01:26.180Z,27.40
2019-04-25T12:03:56.177Z,27.60
2019-04-25T12:06:26.077Z,27.40
2019-04-25T12:08:56.425Z,27.60
2019-04-25T12:11:27.057Z,27.50
2019-04-25T12:13:58.084Z,27.30
2019-04-25T12:16:28.313Z,27.30
2019-04-25T12:18:58.269Z,28.10
2019-04-25T12:21:28.222Z,28.10
2019-04-25T12:23:58.182Z,27.90
2019-04-25T12:26:28.119Z,28.20
2019-04-25T12:28:58.076Z,28.20
2019-04-25T12:31:28.023Z,27.80
2019-04-25T12:33:58.420Z,27.80
2019-04-25T12:36:28.443Z,28.20
2019-04-25T12:38:58.793Z,27.90
2019-04-25T12:41:28.821Z,28.00
2019-04-25T12:44:12.247Z,28.30
2019-04-25T12:46:43.837Z,28.80
2019-04-25T12:49:15.249Z,28.60
2019-04-25T12:51:45.493Z,29.00
2019-04-25T12:54:16.431Z,28.60
2019-04-25T12:56:47.399Z,28.80
2019-04-25T12:59:17.390Z,29.10
2019-04-25T13:01:47.342Z,28.50
2019-04-25T13:04:17.291Z,28.60
2019-04-25T13:06:48.746Z,28.90
2019-04-25T13:09:18.815Z,29.60
2019-04-25T13:11:48.763Z,29.60
2019-04-25T13:14:19.572Z,29.40
2019-04-25T13:16:49.663Z,29.80
2019-04-25T13:19:23.904Z,30.10
2019-04-25T13:21:51.286Z,29.90
2019-04-25T13:24:21.193Z,29.80
2019-04-25T13:26:56.862Z,29.80
2019-04-25T13:29:31.175Z,30.10
2019-04-25T13:32:18.949Z,30.60
2019-04-25T13:34:53.771Z,30.60
2019-04-25T13:37:24.221Z,30.40
2019-04-25T13:39:54.194Z,30.40
2019-04-25T13:42:24.188Z,30.10
2019-04-25T13:44:54.340Z,30.50
2019-04-25T13:47:27.988Z,30.70
2019-04-25T13:49:55.926Z,30.60
2019-04-25T13:52:25.947Z,30.50
2019-04-25T13:54:55.971Z,30.90
2019-04-25T13:57:26.203Z,31.00
2019-04-25T13:59:57.897Z,31.10
2019-04-25T14:02:28.837Z,31.40
2019-04-25T14:04:59.020Z,31.60
2019-04-25T14:07:29.582Z,31.70
2019-04-25T14:09:59.593Z,31.80
2019-04-25T14:12:30.321Z,31.50
2019-04-25T14:15:00.597Z,31.20
2019-04-25T14:17:33.493Z,31.40
2019-04-25T14:20:14.105Z,31.80
2019-04-25T14:22:45.388Z,31.50
2019-04-25T14:25:16.737Z,32.20
2019-04-25T14:27:46.666Z,31.80
2019-04-25T14:30:18.338Z,31.30
2019-04-25T14:32:48.296Z,31.60
2019-04-25T14:35:18.271Z,31.90
2019-04-25T14:37:48.218Z,31.90
2019-04-25T14:40:18.459Z,32.40
2019-04-25T14:42:48.743Z,31.90
2019-04-25T14:45:19.560Z,32.00
2019-04-25T14:47:49.506Z,32.30
2019-04-25T14:50:19.480Z,32.50
2019-04-25T14:52:49.431Z,31.90
2019-04-25T14:55:27.373Z,32.20
2019-04-25T14:57:58.761Z,31.90
2019-04-25T15:00:36.413Z,32.00
2019-04-25T15:03:06.826Z,31.50
2019-04-25T15:05:37.338Z,31.80
2019-04-25T15:08:08.342Z,31.40
2019-04-25T15:10:38.392Z,31.30
2019-04-25T15:13:08.904Z,31.10
2019-04-25T15:15:38.874Z,31.20
2019-04-25T15:18:08.828Z,31.20
2019-04-25T15:20:38.799Z,31.00
2019-04-25T15:23:09.819Z,30.60
2019-04-25T15:25:39.787Z,30.40
2019-04-25T15:28:10.070Z,30.30
2019-04-25T15:30:40.611Z,30.70
2019-04-25T15:33:11.726Z,30.70
2019-04-25T15:35:55.098Z,30.50
2019-04-25T15:38:26.974Z,30.20
2019-04-25T15:41:04.703Z,30.00
2019-04-25T15:43:36.291Z,29.80
2019-04-25T15:46:07.900Z,30.50
2019-04-25T15:48:38.119Z,30.70
2019-04-25T15:51:08.144Z,30.70
2019-04-25T15:53:38.136Z,30.70
2019-04-25T15:56:08.048Z,30.00
2019-04-25T15:58:38.059Z,30.10
2019-04-25T16:01:08.299Z,29.60
2019-04-25T16:03:38.884Z,29.20
2019-04-25T16:06:08.887Z,29.20
2019-04-25T16:08:38.834Z,28.70
2019-04-25T16:11:09.770Z,29.00
2019-04-25T16:13:39.725Z,28.90
2019-04-25T16:16:09.765Z,28.80
2019-04-25T16:18:39.727Z,28.30
2019-04-25T16:21:09.807Z,28.10
2019-04-25T16:23:39.839Z,27.70
2019-04-25T16:26:10.369Z,27.90
2019-04-25T16:28:40.322Z,27.90
2019-04-25T16:31:11.924Z,28.00
2019-04-25T16:33:42.146Z,27.90
2019-04-25T16:36:13.259Z,27.80
2019-04-25T16:38:43.203Z,27.90
2019-04-25T16:41:13.149Z,27.80
2019-04-25T16:43:50.704Z,27.40
2019-04-25T16:46:21.827Z,27.50
2019-04-25T16:48:51.784Z,27.40
2019-04-25T16:51:23.483Z,27.10
2019-04-25T16:53:53.503Z,27.00
2019-04-25T16:56:23.466Z,26.80
2019-04-25T16:58:53.498Z,26.50
2019-04-25T17:01:24.608Z,26.30
2019-04-25T17:03:54.662Z,26.40
2019-04-25T17:06:24.752Z,26.20
2019-04-25T17:08:54.804Z,26.20
2019-04-25T17:11:39.189Z,26.10
2019-04-25T17:14:19.739Z,25.80
2019-04-25T17:17:00.618Z,25.60
2019-04-25T17:19:38.955Z,25.50
2019-04-25T17:22:09.045Z,25.40
2019-04-25T17:24:39.276Z,25.10
2019-04-25T17:27:10.028Z,24.80
2019-04-25T17:29:40.140Z,24.70
2019-04-25T17:32:11.857Z,24.80
2019-04-25T17:34:43.502Z,24.60
2019-04-25T17:37:15.191Z,24.30
2019-04-25T17:39:46.852Z,24.10
2019-04-25T17:42:16.853Z,24.00
2019-04-25T17:44:46.783Z,23.90
2019-04-25T17:47:16.925Z,23.70
2019-04-25T17:49:46.870Z,23.70
2019-04-25T17:52:16.893Z,23.70
2019-04-25T17:54:47.279Z,23.60
2019-04-25T17:57:17.238Z,23.60
2019-04-25T17:59:47.193Z,23.30
2019-04-25T18:02:17.143Z,23.00
2019-04-25T18:04:47.104Z,22.70
2019-04-25T18:07:17.100Z,22.80
2019-04-25T18:09:47.117Z,22.60
2019-04-25T18:12:17.075Z,22.50
2019-04-25T18:14:47.499Z,22.20
2019-04-25T18:17:19.045Z,22.20
2019-04-25T18:19:50.626Z,22.30
2019-04-25T18:22:27.996Z,22.20
2019-04-25T18:24:59.595Z,22.10
2019-04-25T18:27:49.198Z,22.10
2019-04-25T18:30:19.324Z,22.00
2019-04-25T18:32:50.907Z,21.80
2019-04-25T18:35:22.494Z,21.70
2019-04-25T18:38:08.859Z,21.60
2019-04-25T18:40:55.518Z,21.50
2019-04-25T18:43:27.114Z,21.40
2019-04-25T18:45:58.942Z,21.30
2019-04-25T18:48:29.854Z,21.20
2019-04-25T18:50:59.835Z,21.10
2019-04-25T18:53:49.281Z,21.10
2019-04-25T18:56:37.560Z,21.00
2019-04-25T18:59:11.919Z,20.80
2019-04-25T19:01:59.656Z,20.70
2019-04-25T19:04:33.959Z,20.70
2019-04-25T19:07:04.178Z,20.60
2019-04-25T19:09:34.164Z,20.50
2019-04-25T19:12:04.188Z,20.40
2019-04-25T19:14:34.162Z,20.30
2019-04-25T19:17:04.971Z,20.20
2019-04-25T19:19:34.970Z,20.10
2019-04-25T19:22:05.147Z,20.10
2019-04-25T19:24:35.127Z,20.00
2019-04-25T19:27:05.194Z,20.00
2019-04-25T19:29:35.170Z,19.90
2019-04-25T19:32:05.210Z,19.80
2019-04-25T19:34:35.187Z,19.60
2019-04-25T19:37:05.133Z,19.50
2019-04-25T19:39:36.748Z,19.40
2019-04-25T19:42:11.528Z,19.30
2019-04-25T19:44:42.313Z,19.20
2019-04-25T19:47:13.427Z,19.10
2019-04-25T19:49:43.394Z,19.00
2019-04-25T19:52:13.357Z,18.90
2019-04-25T19:54:43.357Z,18.90
2019-04-25T19:57:13.281Z,18.90
2019-04-25T19:59:44.607Z,18.80
2019-04-25T20:02:17.200Z,18.70
2019-04-25T20:04:48.878Z,18.60
2019-04-25T20:07:26.251Z,18.50
2019-04-25T20:10:15.602Z,18.40
2019-04-25T20:12:50.318Z,18.30
2019-04-25T20:15:18.851Z,18.20
2019-04-25T20:17:49.743Z,18.10
2019-04-25T20:20:20.043Z,18.10
2019-04-25T20:22:50.253Z,18.00
2019-04-25T20:25:20.339Z,18.00
2019-04-25T20:27:50.754Z,17.90
2019-04-25T20:30:23.386Z,17.80
2019-04-25T20:32:53.568Z,17.70
2019-04-25T20:35:23.636Z,17.70
2019-04-25T20:37:53.578Z,17.60
2019-04-25T20:40:24.528Z,17.50
2019-04-25T20:42:54.467Z,17.30
2019-04-25T20:45:24.507Z,17.30
2019-04-25T20:47:54.744Z,17.30
2019-04-25T20:50:24.922Z,17.20
2019-04-25T20:52:55.084Z,17.20
2019-04-25T20:55:25.081Z,17.10
2019-04-25T20:57:56.000Z,17.00
2019-04-25T21:00:40.810Z,17.00
2019-04-25T21:03:10.893Z,16.90
2019-04-25T21:05:41.043Z,16.90
2019-04-25T21:08:11.008Z,16.80
2019-04-25T21:10:40.951Z,16.80
2019-04-25T21:13:12.580Z,16.70
2019-04-25T21:15:54.140Z,16.70
2019-04-25T21:18:31.892Z,16.60
2019-04-25T21:21:02.104Z,16.50
2019-04-25T21:23:32.258Z,16.50
2019-04-25T21:26:03.270Z,16.50
2019-04-25T21:28:33.310Z,16.50
2019-04-25T21:31:03.480Z,16.60
2019-04-25T21:33:33.683Z,16.60
2019-04-25T21:36:04.087Z,16.60
2019-04-25T21:38:34.759Z,16.70
2019-04-25T21:41:06.419Z,16.70
2019-04-25T21:43:38.310Z,16.70
2019-04-25T21:46:08.535Z,16.70
2019-04-25T21:48:38.793Z,16.70
2019-04-25T21:51:26.619Z,16.70
2019-04-25T21:53:57.291Z,16.70
2019-04-25T21:56:27.649Z,16.70
2019-04-25T21:58:57.878Z,16.60
2019-04-25T22:01:30.413Z,16.60
2019-04-25T22:04:00.755Z,16.60
2019-04-25T22:06:32.543Z,16.60
2019-04-25T22:09:03.043Z,16.60
2019-04-25T22:11:34.748Z,16.60
2019-04-25T22:14:05.444Z,16.70
2019-04-25T22:16:35.583Z,16.80
2019-04-25T22:19:06.388Z,16.80
2019-04-25T22:21:38.105Z,16.80
2019-04-25T22:24:12.830Z,16.70
2019-04-25T22:26:40.236Z,16.70
2019-04-25T22:29:10.515Z,16.60
2019-04-25T22:31:42.067Z,16.50
2019-04-25T22:34:28.487Z,16.50
2019-04-25T22:36:58.620Z,16.50
2019-04-25T22:39:28.610Z,16.50
2019-04-25T22:41:59.551Z,16.40
2019-04-25T22:44:30.540Z,16.40
2019-04-25T22:47:00.921Z,16.40
2019-04-25T22:49:31.280Z,16.40
2019-04-25T22:52:01.762Z,16.30
2019-04-25T22:54:32.907Z,16.30
2019-04-25T22:57:02.886Z,16.10
2019-04-25T22:59:33.563Z,16.10
2019-04-25T23:02:21.605Z,16.00
2019-04-25T23:05:08.981Z,15.90
2019-04-25T23:07:34.296Z,16.00
2019-04-25T23:10:06.547Z,16.00
2019-04-25T23:12:36.900Z,16.00
2019-04-25T23:15:08.805Z,15.90
2019-04-25T23:17:38.844Z,15.90
2019-04-25T23:20:09.691Z,15.80
2019-04-25T23:22:39.736Z,15.80
2019-04-25T23:25:12.277Z,15.70
2019-04-25T23:28:01.817Z,15.70
2019-04-25T23:30:34.775Z,15.70
2019-04-25T23:33:05.763Z,15.60
2019-04-25T23:35:38.042Z,15.60
2019-04-25T23:38:10.795Z,15.60
2019-04-25T23:40:39.879Z,15.60
2019-04-25T23:43:11.675Z,15.50
2019-04-25T23:45:41.795Z,15.50
2019-04-25T23:48:12.411Z,15.50
2019-04-25T23:50:42.533Z,15.50
2019-04-25T23:53:12.881Z,15.40
2019-04-25T23:55:43.436Z,15.40
2019-04-25T23:58:13.480Z,15.30
